Terminal Aerodrome Forecast
Issued by NWS Birmingham, AL

Home | Current Version | Previous Version | Text Only | Print | Product List | Glossary On
Versions: 1 2 3 4 5 6 7 8 9 10 11 12 13
015
FTUS44 KBMX 221428 AAA
TAFBHM
TAF AMD
KBHM 221428Z 2214/2312 12008G16KT P6SM SCT025 BKN150
      TEMPO 2215/2217 BKN015
     FM222100 13012G20KT P6SM VCSH BKN040
     FM222300 15012G20KT 5SM SHRA VCTS BKN040CB OVC060 PROB30
      2301/2307 2SM TSRA SCT025CB BKN040=

USA.gov is the U.S. government's official web portal to all federal, state and local government web resources and services.